Time;durP1;ratioP1;P1;durP2;ratioP2;P2;SDS_P1;SDS_P2;PMS_P1;PMS_P2;Temp;Humidity;BMP_temperature;BMP_pressure;BME280_temperature;BME280_humidity;BME280_pressure;Samples;Min_cycle;Max_cycle;Signal;HPM_P1;HPM_P2
2022/07/09 00:00:31;;;;;;;9.38;5.78;;;15.00;99.90;;;;;;4963108;28;20081;-82
2022/07/09 00:02:57;;;;;;;7.13;5.78;;;15.00;99.90;;;;;;4962366;28;20069;-81
2022/07/09 00:05:23;;;;;;;8.32;5.97;;;14.90;99.90;;;;;;4960825;28;20038;-81
2022/07/09 00:07:48;;;;;;;6.57;5.07;;;14.90;99.90;;;;;;4952512;28;20451;-81
2022/07/09 00:10:14;;;;;;;6.75;5.88;;;14.80;99.90;;;;;;4959979;28;20034;-81
2022/07/09 00:12:40;;;;;;;5.97;5.32;;;14.70;99.90;;;;;;4959801;28;20487;-81
2022/07/09 00:15:06;;;;;;;7.45;4.78;;;14.60;99.90;;;;;;4962062;28;20047;-81
2022/07/09 00:17:32;;;;;;;6.13;5.10;;;14.50;99.90;;;;;;4962142;28;20035;-81
2022/07/09 00:19:58;;;;;;;6.63;4.95;;;14.50;99.90;;;;;;4961719;28;20090;-81
2022/07/09 00:22:23;;;;;;;7.70;4.60;;;14.60;99.90;;;;;;4962312;28;20038;-81
2022/07/09 00:24:49;;;;;;;6.60;4.85;;;14.50;99.90;;;;;;4941873;28;20038;-81
2022/07/09 00:27:15;;;;;;;6.53;5.80;;;14.50;99.90;;;;;;4943853;28;20046;-81
2022/07/09 00:29:41;;;;;;;6.43;5.35;;;14.50;99.90;;;;;;4962329;28;20027;-81
2022/07/09 00:32:07;;;;;;;9.50;5.22;;;14.50;99.90;;;;;;4961924;28;20034;-81
2022/07/09 00:34:33;;;;;;;7.45;5.45;;;14.60;99.90;;;;;;4959591;28;20645;-81
2022/07/09 00:36:59;;;;;;;6.05;5.45;;;14.60;99.90;;;;;;4951129;28;20698;-81
2022/07/09 00:39:25;;;;;;;7.65;4.82;;;14.60;99.90;;;;;;4953334;28;20067;-81
2022/07/09 00:42:01;;;;;;;8.02;5.70;;;14.60;99.90;;;;;;4946849;28;20056;-82
2022/07/09 00:44:26;;;;;;;7.15;5.03;;;14.50;99.90;;;;;;4961756;28;20026;-82
2022/07/09 00:46:52;;;;;;;8.00;5.10;;;14.50;99.90;;;;;;4960754;28;20540;-81
2022/07/09 00:49:18;;;;;;;7.43;5.70;;;14.50;99.90;;;;;;4961039;28;20066;-81
2022/07/09 00:51:44;;;;;;;7.93;4.18;;;14.50;99.90;;;;;;4960577;28;20035;-81
2022/07/09 00:54:10;;;;;;;5.88;4.80;;;14.50;99.90;;;;;;4961329;28;20031;-81
2022/07/09 00:56:36;;;;;;;6.60;4.70;;;14.40;99.90;;;;;;4961118;28;20054;-81
2022/07/09 00:59:07;;;;;;;9.98;5.35;;;14.40;99.90;;;;;;4960931;28;20501;-81
2022/07/09 01:01:33;;;;;;;;;;;14.40;99.90;;;;;;4962010;28;20041;-81
2022/07/09 01:04:01;;;;;;;6.20;4.72;;;14.40;99.90;;;;;;4959055;28;20378;-82
2022/07/09 01:06:27;;;;;;;7.25;4.88;;;14.40;99.90;;;;;;4959646;28;20038;-82
2022/07/09 01:08:53;;;;;;;8.68;5.20;;;14.30;99.90;;;;;;4960202;28;20031;-81
2022/07/09 01:11:18;;;;;;;7.05;5.13;;;14.30;99.90;;;;;;4962186;28;20117;-81
2022/07/09 01:13:44;;;;;;;8.02;4.95;;;14.30;99.90;;;;;;4959391;28;20061;-82
2022/07/09 01:16:14;;;;;;;7.82;5.53;;;14.20;99.90;;;;;;4961686;28;20584;-81
2022/07/09 01:18:42;;;;;;;6.25;5.00;;;14.20;99.90;;;;;;4942770;28;20035;-81
2022/07/09 01:21:08;;;;;;;9.38;5.70;;;14.10;99.90;;;;;;4942899;28;20129;-82
2022/07/09 01:23:34;;;;;;;9.63;5.90;;;14.10;99.90;;;;;;4960676;28;20105;-81
2022/07/09 01:26:00;;;;;;;7.35;5.32;;;14.00;99.90;;;;;;4961277;28;20093;-82
2022/07/09 01:28:26;;;;;;;8.05;5.72;;;14.00;99.90;;;;;;4944174;28;20043;-81
2022/07/09 01:30:52;;;;;;;8.38;5.80;;;14.00;99.90;;;;;;4943130;28;20030;-81
2022/07/09 01:33:18;;;;;;;5.88;5.28;;;13.90;99.90;;;;;;4941784;28;20418;-82
2022/07/09 01:35:43;;;;;;;8.18;5.90;;;13.90;99.90;;;;;;4957344;28;20085;-81
2022/07/09 01:38:09;;;;;;;7.43;5.55;;;13.90;99.90;;;;;;4958820;28;20077;-81
2022/07/09 01:40:35;;;;;;;8.73;5.47;;;13.80;99.90;;;;;;4941787;28;20043;-81
2022/07/09 01:43:00;;;;;;;6.90;5.40;;;13.80;99.90;;;;;;4960934;28;20027;-82
2022/07/09 01:45:26;;;;;;;8.68;5.80;;;13.70;99.90;;;;;;4953885;28;20026;-80
2022/07/09 01:47:52;;;;;;;6.30;5.63;;;13.70;99.90;;;;;;4961905;28;20050;-81
2022/07/09 01:50:18;;;;;;;6.38;5.65;;;13.60;99.90;;;;;;4953789;28;20479;-82
2022/07/09 01:52:43;;;;;;;10.35;5.90;;;13.60;99.90;;;;;;4929288;28;20085;-81
2022/07/09 01:55:09;;;;;;;9.73;7.07;;;13.60;99.90;;;;;;4956470;28;20047;-83
2022/07/09 01:57:35;;;;;;;8.88;5.82;;;13.60;99.90;;;;;;4958733;28;20050;-81
2022/07/09 02:00:03;;;;;;;10.45;6.05;;;13.60;99.90;;;;;;4942707;28;20043;-81
2022/07/09 02:02:29;;;;;;;10.40;7.35;;;13.60;99.90;;;;;;4945083;28;20037;-82
2022/07/09 02:04:55;;;;;;;7.97;6.43;;;13.60;99.90;;;;;;4963871;28;20038;-81
2022/07/09 02:07:20;;;;;;;9.68;7.18;;;13.50;99.90;;;;;;4945795;28;20403;-81
2022/07/09 02:09:48;;;;;;;9.00;7.05;;;13.50;99.90;;;;;;4945539;28;20041;-81
2022/07/09 02:12:15;;;;;;;11.15;8.38;;;13.40;99.90;;;;;;4946000;28;20042;-81
2022/07/09 02:14:40;;;;;;;12.02;7.03;;;13.40;99.90;;;;;;4960985;28;20047;-81
2022/07/09 02:17:06;;;;;;;11.13;7.15;;;13.30;99.90;;;;;;4966393;28;20074;-82
2022/07/09 02:19:32;;;;;;;9.93;7.18;;;13.30;99.90;;;;;;4956407;28;20027;-82
2022/07/09 02:21:58;;;;;;;10.02;6.93;;;13.30;99.90;;;;;;4959426;28;20035;-81
2022/07/09 02:24:23;;;;;;;11.45;6.95;;;13.30;99.90;;;;;;4944496;28;20054;-81
2022/07/09 02:26:49;;;;;;;10.10;6.22;;;13.20;99.90;;;;;;4963079;28;20851;-81
2022/07/09 02:29:14;;;;;;;9.23;6.78;;;13.20;99.90;;;;;;4963215;28;20549;-82
2022/07/09 02:31:40;;;;;;;8.77;6.60;;;13.20;99.90;;;;;;4940550;28;20038;-81
2022/07/09 02:34:06;;;;;;;11.10;6.40;;;13.20;99.90;;;;;;4963681;28;20427;-80
2022/07/09 02:36:32;;;;;;;9.18;6.75;;;13.20;99.90;;;;;;4961981;28;20058;-81
2022/07/09 02:38:57;;;;;;;11.32;6.95;;;13.20;99.90;;;;;;4943610;28;20035;-81
2022/07/09 02:41:23;;;;;;;7.90;6.28;;;13.20;99.90;;;;;;4942202;28;20061;-81
2022/07/09 02:43:48;;;;;;;8.23;6.15;;;13.20;99.90;;;;;;4963992;28;20023;-81
2022/07/09 02:46:15;;;;;;;8.32;6.05;;;13.20;99.90;;;;;;4963956;28;20034;-81
2022/07/09 02:48:41;;;;;;;7.93;5.72;;;13.20;99.90;;;;;;4937463;28;20063;-82
2022/07/09 02:51:06;;;;;;;6.93;4.63;;;13.20;99.90;;;;;;4942213;28;20062;-81
2022/07/09 02:53:32;;;;;;;8.25;5.78;;;13.10;99.90;;;;;;4944560;29;20839;-79
2022/07/09 02:55:58;;;;;;;6.95;5.50;;;13.10;99.90;;;;;;4933045;29;20173;-81
2022/07/09 02:58:23;;;;;;;7.43;5.10;;;13.10;99.90;;;;;;4926776;29;20032;-81
2022/07/09 03:00:49;;;;;;;7.28;5.63;;;13.20;99.90;;;;;;4935918;28;20043;-81
2022/07/09 03:03:15;;;;;;;6.85;5.55;;;13.20;99.90;;;;;;4930176;29;20124;-81
2022/07/09 03:05:41;;;;;;;7.93;5.25;;;13.20;99.90;;;;;;4951263;28;20043;-81
2022/07/09 03:08:08;;;;;;;7.45;5.35;;;13.20;99.90;;;;;;4958957;28;20115;-82
2022/07/09 03:10:34;;;;;;;7.18;5.40;;;13.10;99.90;;;;;;4925458;29;20031;-81
2022/07/09 03:13:00;;;;;;;8.18;5.63;;;13.10;99.90;;;;;;4926056;29;20056;-81
2022/07/09 03:15:26;;;;;;;6.78;5.25;;;13.10;99.90;;;;;;4930820;29;20137;-81
2022/07/09 03:17:51;;;;;;;5.68;4.65;;;13.10;99.90;;;;;;4945013;28;20086;-82
2022/07/09 03:20:17;;;;;;;7.40;5.40;;;13.10;99.90;;;;;;4941659;28;20035;-81
2022/07/09 03:22:43;;;;;;;8.07;5.53;;;13.00;99.90;;;;;;4945135;29;20420;-81
2022/07/09 03:25:09;;;;;;;7.75;5.50;;;13.00;99.90;;;;;;4943658;28;20031;-81
2022/07/09 03:27:35;;;;;;;9.20;5.65;;;13.00;99.90;;;;;;4930909;28;20031;-82
2022/07/09 03:30:03;;;;;;;6.20;5.10;;;12.90;99.90;;;;;;4925862;29;20038;-81
2022/07/09 03:32:29;;;;;;;9.82;6.57;;;12.90;99.90;;;;;;4944048;28;20047;-81
2022/07/09 03:34:54;;;;;;;8.90;5.85;;;12.90;99.90;;;;;;4943998;29;20035;-81
2022/07/09 03:37:20;;;;;;;7.15;6.03;;;12.80;99.90;;;;;;4943816;29;20031;-81
2022/07/09 03:39:47;;;;;;;7.53;5.40;;;12.80;99.90;;;;;;4943936;29;20038;-82
2022/07/09 03:42:13;;;;;;;6.13;5.28;;;12.80;99.90;;;;;;4934806;29;20110;-81
2022/07/09 03:44:40;;;;;;;8.40;5.40;;;12.80;99.90;;;;;;4939487;29;20035;-81
2022/07/09 03:47:06;;;;;;;7.32;5.30;;;12.80;99.90;;;;;;4945951;29;20114;-82
2022/07/09 03:49:32;;;;;;;7.97;4.90;;;12.80;99.90;;;;;;4938906;28;20058;-81
2022/07/09 03:51:58;;;;;;;7.35;5.07;;;12.80;99.90;;;;;;4945549;28;20036;-81
2022/07/09 03:54:24;;;;;;;8.15;5.40;;;12.90;99.90;;;;;;4945036;28;20138;-81
2022/07/09 03:56:50;;;;;;;7.50;5.05;;;12.90;99.90;;;;;;4945722;29;20577;-81
2022/07/09 03:59:16;;;;;;;8.27;5.00;;;12.90;99.90;;;;;;4944564;28;20115;-81
2022/07/09 04:01:42;;;;;;;7.97;5.43;;;12.90;99.90;;;;;;4943442;28;20043;-82
2022/07/09 04:04:08;;;;;;;7.57;5.50;;;12.90;99.90;;;;;;4945031;28;20133;-81
2022/07/09 04:06:34;;;;;;;9.13;5.18;;;12.90;99.90;;;;;;4945036;29;20050;-81
2022/07/09 04:09:04;;;;;;;9.38;5.55;;;12.90;99.90;;;;;;4945485;28;20501;-82
2022/07/09 04:11:31;;;;;;;6.53;4.45;;;13.00;99.90;;;;;;4943008;29;20039;-81
2022/07/09 04:13:56;;;;;;;5.93;4.95;;;13.00;99.90;;;;;;4940732;28;20035;-82
2022/07/09 04:16:22;;;;;;;7.30;4.78;;;12.90;99.90;;;;;;4942795;28;20043;-82
2022/07/09 04:18:48;;;;;;;7.60;5.40;;;13.00;99.90;;;;;;4940817;28;20129;-82
2022/07/09 04:21:13;;;;;;;6.43;4.72;;;13.00;99.90;;;;;;4940823;28;20625;-82
2022/07/09 04:23:39;;;;;;;7.63;5.03;;;12.90;99.90;;;;;;4943918;28;20509;-82
2022/07/09 04:26:04;;;;;;;8.23;4.50;;;12.90;99.90;;;;;;4943879;29;20023;-81
2022/07/09 04:28:30;;;;;;;6.13;4.32;;;13.00;99.90;;;;;;4942842;28;20046;-81
2022/07/09 04:30:56;;;;;;;6.03;4.45;;;12.90;99.90;;;;;;4941978;28;20499;-82
2022/07/09 04:33:21;;;;;;;6.80;4.63;;;12.90;99.90;;;;;;4952811;28;20103;-82
2022/07/09 04:35:47;;;;;;;7.63;4.13;;;12.90;99.90;;;;;;4921751;29;20059;-82
2022/07/09 04:38:13;;;;;;;6.03;4.13;;;13.00;99.90;;;;;;4950368;28;20035;-82
2022/07/09 04:40:39;;;;;;;4.35;3.95;;;12.90;99.90;;;;;;4942825;29;20057;-81
2022/07/09 04:43:06;;;;;;;5.72;4.28;;;13.00;99.90;;;;;;4942653;28;20364;-81
2022/07/09 04:45:32;;;;;;;4.70;3.90;;;13.00;99.90;;;;;;4943295;29;20097;-82
2022/07/09 04:47:59;;;;;;;8.98;4.57;;;13.00;99.90;;;;;;4940494;28;20051;-81
2022/07/09 04:50:25;;;;;;;5.00;4.40;;;13.00;99.90;;;;;;4941513;28;20061;-81
2022/07/09 04:52:51;;;;;;;4.95;3.85;;;13.10;99.90;;;;;;4940636;28;20063;-81
2022/07/09 04:55:17;;;;;;;5.88;4.30;;;13.10;99.90;;;;;;4944141;28;20047;-81
2022/07/09 04:57:43;;;;;;;5.53;4.20;;;13.10;99.90;;;;;;4943479;28;20032;-82
2022/07/09 05:00:10;;;;;;;5.53;4.30;;;13.10;99.90;;;;;;4940517;29;20027;-81
2022/07/09 05:02:37;;;;;;;4.93;4.07;;;13.10;99.90;;;;;;4940256;28;20070;-81
2022/07/09 05:05:03;;;;;;;5.53;3.95;;;13.20;99.90;;;;;;4939447;29;20038;-82
2022/07/09 05:07:30;;;;;;;6.65;4.28;;;13.20;99.90;;;;;;4940724;29;20130;-81
2022/07/09 05:09:56;;;;;;;5.07;3.67;;;13.30;99.90;;;;;;4939513;28;20035;-82
2022/07/09 05:12:22;;;;;;;4.35;3.30;;;13.30;99.90;;;;;;4939869;28;20287;-81
2022/07/09 05:14:48;;;;;;;4.38;3.90;;;13.30;99.90;;;;;;4939323;29;20050;-81
2022/07/09 05:17:14;;;;;;;8.90;3.75;;;13.30;99.90;;;;;;4940118;29;20347;-81
2022/07/09 05:19:39;;;;;;;5.38;3.95;;;13.40;99.90;;;;;;4939520;29;20734;-82
2022/07/09 05:22:05;;;;;;;3.92;3.60;;;13.40;99.90;;;;;;4942037;29;20057;-82
2022/07/09 05:24:31;;;;;;;4.03;3.58;;;13.40;99.90;;;;;;4939645;28;20027;-81
2022/07/09 05:26:56;;;;;;;4.30;3.17;;;13.50;99.90;;;;;;4939342;28;20055;-82
2022/07/09 05:29:22;;;;;;;3.28;2.97;;;13.60;99.90;;;;;;4938264;28;20085;-81
2022/07/09 05:31:49;;;;;;;2.97;2.67;;;13.70;99.90;;;;;;4941196;28;20035;-82
2022/07/09 05:34:16;;;;;;;2.67;2.47;;;13.80;99.90;;;;;;4943538;28;20362;-82
2022/07/09 05:36:42;;;;;;;3.97;2.60;;;13.90;99.90;;;;;;4944676;29;20054;-81
2022/07/09 05:39:08;;;;;;;4.35;2.90;;;13.90;99.90;;;;;;4942141;28;20019;-82
2022/07/09 05:41:33;;;;;;;3.30;2.55;;;14.00;99.90;;;;;;4940260;28;20573;-81
2022/07/09 05:44:03;;;;;;;2.80;2.60;;;14.10;99.90;;;;;;4940659;29;20053;-81
2022/07/09 05:46:29;;;;;;;5.28;2.67;;;14.20;99.90;;;;;;4943595;28;20054;-81
2022/07/09 05:48:55;;;;;;;4.20;2.63;;;14.30;99.90;;;;;;4943938;28;20047;-82
2022/07/09 05:51:21;;;;;;;3.45;2.38;;;14.40;99.90;;;;;;4944812;28;20027;-81
2022/07/09 05:53:46;;;;;;;6.38;2.78;;;14.50;99.90;;;;;;4942827;29;20086;-82
2022/07/09 05:56:12;;;;;;;3.17;2.47;;;14.60;99.90;;;;;;4944750;29;20469;-82
2022/07/09 05:58:38;;;;;;;3.45;2.50;;;14.70;99.90;;;;;;4944472;29;20027;-81
2022/07/09 06:01:05;;;;;;;6.25;2.40;;;14.80;99.90;;;;;;4945077;28;20031;-81
2022/07/09 06:03:31;;;;;;;4.03;2.67;;;14.90;99.90;;;;;;4945472;28;20498;-81
2022/07/09 06:05:56;;;;;;;3.97;2.20;;;15.00;99.90;;;;;;4944257;28;20035;-82
2022/07/09 06:08:24;;;;;;;3.38;2.22;;;15.10;99.90;;;;;;4945960;29;20129;-82
2022/07/09 06:10:50;;;;;;;2.63;2.42;;;15.20;99.90;;;;;;4944792;28;20083;-82
2022/07/09 06:13:16;;;;;;;3.45;2.50;;;15.30;99.90;;;;;;4939593;28;20091;-82
2022/07/09 06:15:42;;;;;;;2.20;1.95;;;15.40;99.90;;;;;;4942901;28;20039;-81
2022/07/09 06:18:08;;;;;;;3.15;2.13;;;15.50;99.90;;;;;;4940489;28;20427;-81
2022/07/09 06:20:33;;;;;;;3.38;2.50;;;15.60;99.90;;;;;;4942307;28;20637;-81
2022/07/09 06:22:59;;;;;;;2.95;2.17;;;15.70;99.90;;;;;;4933553;28;20059;-82
2022/07/09 06:25:25;;;;;;;2.85;2.15;;;15.80;99.90;;;;;;4922399;29;20047;-81
2022/07/09 06:27:51;;;;;;;2.33;2.10;;;15.90;99.90;;;;;;4937247;28;20090;-82
2022/07/09 06:30:16;;;;;;;2.15;1.88;;;16.00;99.90;;;;;;4943049;28;20031;-82
2022/07/09 06:32:42;;;;;;;2.72;2.00;;;16.10;99.90;;;;;;4958780;28;20031;-81
2022/07/09 06:35:08;;;;;;;3.33;2.35;;;16.20;99.90;;;;;;4942328;28;20459;-80
2022/07/09 06:37:34;;;;;;;3.95;3.55;;;16.30;99.90;;;;;;4944102;29;20042;-82
2022/07/09 06:39:59;;;;;;;7.60;3.85;;;16.50;99.90;;;;;;4942552;28;20140;-81
2022/07/09 06:42:26;;;;;;;7.35;3.88;;;16.70;99.90;;;;;;4944209;29;20578;-80
2022/07/09 06:44:51;;;;;;;5.53;2.90;;;16.70;99.90;;;;;;4941541;28;20057;-81
2022/07/09 06:47:17;;;;;;;2.28;2.08;;;16.90;99.90;;;;;;4943060;29;20027;-81
2022/07/09 06:49:43;;;;;;;3.38;1.95;;;17.00;99.90;;;;;;4960635;28;20137;-81
2022/07/09 06:52:09;;;;;;;1.90;1.80;;;17.00;99.90;;;;;;4943886;28;20037;-81
2022/07/09 06:54:35;;;;;;;21.30;19.05;;;17.20;99.90;;;;;;4963397;28;20034;-81
2022/07/09 06:57:03;;;;;;;41.13;31.15;;;17.40;99.90;;;;;;4961649;28;20402;-81
2022/07/09 06:59:29;;;;;;;5.72;4.25;;;17.50;99.90;;;;;;4958893;28;20121;-81
2022/07/09 07:01:55;;;;;;;5.13;3.70;;;17.60;99.90;;;;;;4962679;28;20031;-81
2022/07/09 07:04:21;;;;;;;4.18;2.42;;;17.70;99.90;;;;;;4954487;28;20034;-81
2022/07/09 07:06:48;;;;;;;1.60;1.50;;;17.80;99.90;;;;;;4958661;28;20031;-81
2022/07/09 07:09:18;;;;;;;1.80;1.70;;;18.00;99.90;;;;;;4960579;28;20033;-81
2022/07/09 07:11:45;;;;;;;2.80;2.25;;;18.20;99.90;;;;;;4962412;28;20431;-81
2022/07/09 07:14:11;;;;;;;3.58;1.67;;;18.20;99.90;;;;;;4959378;28;20050;-81
2022/07/09 07:16:37;;;;;;;1.98;1.20;;;18.40;99.90;;;;;;4941840;28;20062;-80
2022/07/09 07:19:02;;;;;;;2.95;1.80;;;18.60;99.90;;;;;;4941369;28;20023;-81
2022/07/09 07:21:28;;;;;;;8.13;1.63;;;18.70;99.90;;;;;;4957838;28;20418;-81
2022/07/09 07:23:54;;;;;;;43.47;34.78;;;18.80;99.90;;;;;;4956569;28;20517;-80
2022/07/09 07:26:20;;;;;;;44.53;30.33;;;18.90;99.90;;;;;;4954178;28;20034;-82
2022/07/09 07:28:45;;;;;;;4.68;2.80;;;19.00;99.90;;;;;;4954020;28;20037;-82
2022/07/09 07:31:11;;;;;;;2.05;1.65;;;19.20;99.90;;;;;;4951411;28;20049;-81
2022/07/09 07:33:38;;;;;;;1.38;1.20;;;19.30;99.90;;;;;;4932375;28;20069;-81
2022/07/09 07:36:04;;;;;;;1.13;1.13;;;20.20;99.90;;;;;;4957973;28;20120;-81
2022/07/09 07:38:30;;;;;;;3.72;1.52;;;22.60;99.90;;;;;;4959936;28;20058;-81
2022/07/09 07:40:55;;;;;;;1.23;1.13;;;23.90;99.90;;;;;;4963370;28;20303;-81
2022/07/09 07:43:21;;;;;;;1.77;1.20;;;24.90;99.90;;;;;;4954434;28;20109;-82
2022/07/09 07:45:47;;;;;;;1.30;1.23;;;26.50;99.30;;;;;;4951453;28;20145;-82
2022/07/09 07:48:13;;;;;;;1.00;1.00;;;28.10;93.50;;;;;;4954613;28;20086;-81
2022/07/09 07:50:39;;;;;;;2.92;0.93;;;31.60;67.60;;;;;;4950620;28;20065;-81
2022/07/09 07:53:07;;;;;;;1.67;0.57;;;34.40;52.60;;;;;;4947062;28;20034;-82
2022/07/09 07:55:34;;;;;;;1.85;0.70;;;36.90;43.60;;;;;;4948766;28;20038;-82
2022/07/09 07:58:00;;;;;;;1.02;0.65;;;35.50;42.20;;;;;;4930398;28;20034;-82
2022/07/09 08:00:25;;;;;;;2.50;0.95;;;35.60;43.60;;;;;;4952899;28;20061;-82
2022/07/09 08:02:51;;;;;;;0.93;0.55;;;34.20;41.70;;;;;;4932649;28;20058;-82
2022/07/09 08:05:17;;;;;;;0.47;0.47;;;32.60;44.20;;;;;;4934603;28;20081;-82
2022/07/09 08:07:42;;;;;;;0.90;0.52;;;29.80;52.50;;;;;;4949563;28;20418;-81
2022/07/09 08:10:09;;;;;;;1.10;0.45;;;31.40;56.20;;;;;;4949148;28;20027;-82
2022/07/09 08:12:34;;;;;;;2.05;0.70;;;29.80;56.40;;;;;;4935545;28;20058;-81
2022/07/09 08:15:00;;;;;;;0.95;0.40;;;28.60;64.80;;;;;;4949114;28;20162;-81
2022/07/09 08:17:26;;;;;;;1.50;0.57;;;26.80;79.30;;;;;;4945164;28;20414;-81
2022/07/09 08:19:52;;;;;;;0.95;0.77;;;25.70;94.80;;;;;;4946264;28;20566;-81
2022/07/09 08:22:17;;;;;;;1.27;0.57;;;25.40;98.20;;;;;;4945795;28;20410;-81
2022/07/09 08:24:43;;;;;;;2.33;0.70;;;26.00;97.90;;;;;;4942714;28;20039;-81
2022/07/09 08:27:09;;;;;;;0.60;0.60;;;26.20;92.90;;;;;;4945939;28;20114;-82
2022/07/09 08:29:35;;;;;;;0.95;0.50;;;25.80;95.60;;;;;;4943662;28;20030;-81
2022/07/09 08:32:02;;;;;;;2.45;0.70;;;27.20;93.80;;;;;;4950469;28;20129;-81
2022/07/09 08:34:28;;;;;;;3.08;1.10;;;26.80;90.90;;;;;;4949716;28;20026;-82
2022/07/09 08:36:53;;;;;;;1.10;0.68;;;26.10;92.10;;;;;;4949830;28;20128;-81
2022/07/09 08:39:19;;;;;;;0.75;0.75;;;25.60;93.70;;;;;;4956259;28;20106;-81
2022/07/09 08:41:45;;;;;;;2.00;0.63;;;25.00;96.90;;;;;;4960291;28;20050;-80
2022/07/09 08:44:12;;;;;;;2.10;0.50;;;24.50;99.90;;;;;;4949685;28;20031;-80
2022/07/09 08:46:41;;;;;;;0.73;0.47;;;24.10;99.90;;;;;;4942551;28;21440;-80
2022/07/09 08:49:11;;;;;;;0.85;0.50;;;24.10;99.90;;;;;;4957728;28;20525;-80
2022/07/09 08:51:37;;;;;;;1.45;0.80;;;23.80;99.90;;;;;;4951542;28;20113;-80
2022/07/09 08:54:04;;;;;;;1.85;0.68;;;23.70;99.90;;;;;;4944959;28;20023;-80
2022/07/09 08:56:30;;;;;;;1.20;0.50;;;23.70;99.90;;;;;;4961518;28;20129;-80
2022/07/09 08:58:56;;;;;;;0.98;0.60;;;23.90;99.90;;;;;;4959344;28;20062;-80
2022/07/09 09:01:21;;;;;;;2.08;0.68;;;24.10;99.90;;;;;;4958396;28;20038;-81
2022/07/09 09:03:47;;;;;;;3.47;0.60;;;25.40;94.80;;;;;;4960962;28;20077;-81
2022/07/09 09:06:13;;;;;;;0.20;0.20;;;25.60;95.80;;;;;;4953131;28;20055;-81
2022/07/09 09:08:42;;;;;;;0.47;0.47;;;25.80;90.20;;;;;;4960039;28;20026;-81
2022/07/09 09:11:13;;;;;;;0.30;0.30;;;26.00;82.50;;;;;;4959175;28;20114;-80
2022/07/09 09:13:47;;;;;;;0.95;0.40;;;26.50;73.00;;;;;;4956596;28;20038;-80
2022/07/09 09:16:14;;;;;;;1.90;0.30;;;27.10;75.20;;;;;;4931201;28;20109;-81
2022/07/09 09:18:44;;;;;;;0.30;0.30;;;29.40;63.00;;;;;;4959585;28;20502;-81
2022/07/09 09:21:11;;;;;;;6.07;2.03;;;30.90;53.50;;;;;;4950501;28;20062;-80
2022/07/09 09:23:54;;;;;;;0.50;0.50;;;30.70;50.30;;;;;;4951002;28;20027;-80
2022/07/09 09:26:24;;;;;;;0.32;0.25;;;32.20;48.70;;;;;;4953619;28;20510;-81
2022/07/09 09:28:53;;;;;;;1.85;0.30;;;32.70;45.90;;;;;;4955409;28;20438;-81
2022/07/09 09:31:35;;;;;;;0.22;0.20;;;31.70;47.00;;;;;;4951445;28;20097;-80
2022/07/09 09:34:12;;;;;;;1.73;0.20;;;31.50;48.90;;;;;;4956396;28;20745;-82
2022/07/09 09:36:44;;;;;;;0.45;0.30;;;32.40;49.70;;;;;;4948161;28;20043;-81
2022/07/09 09:39:11;;;;;;;5.75;0.55;;;33.00;46.30;;;;;;4950275;28;20090;-80
2022/07/09 09:41:36;;;;;;;1.38;0.20;;;32.60;43.70;;;;;;4950878;28;20054;-81
2022/07/09 09:44:11;;;;;;;0.30;0.25;;;31.20;47.00;;;;;;4953518;28;20105;-81
2022/07/09 09:46:38;;;;;;;1.60;0.40;;;30.30;47.10;;;;;;4943425;28;20383;-82
2022/07/09 09:49:08;;;;;;;0.30;0.30;;;29.20;49.70;;;;;;4952062;28;20051;-81
2022/07/09 09:51:41;;;;;;;0.60;0.60;;;28.40;54.20;;;;;;4947603;28;20035;-81
2022/07/09 09:54:10;;;;;;;0.40;0.40;;;27.80;59.60;;;;;;4945226;28;22938;-81
2022/07/09 09:56:35;;;;;;;0.50;0.50;;;28.00;58.00;;;;;;4942226;28;20197;-87
2022/07/09 09:59:01;;;;;;;0.88;0.38;;;29.10;60.30;;;;;;4934350;28;20030;-84
2022/07/09 10:01:29;;;;;;;0.52;0.50;;;29.20;51.00;;;;;;4933084;28;20125;-81
2022/07/09 10:03:55;;;;;;;0.45;0.40;;;29.10;54.10;;;;;;4951414;28;20018;-83
2022/07/09 10:06:21;;;;;;;0.68;0.50;;;28.50;53.60;;;;;;4952886;28;20504;-82
2022/07/09 10:08:47;;;;;;;1.05;0.60;;;28.10;54.20;;;;;;4951703;28;20447;-83
2022/07/09 10:11:13;;;;;;;0.90;0.50;;;27.70;56.50;;;;;;4955861;28;20189;-86
2022/07/09 10:13:58;;;;;;;0.95;0.50;;;27.10;59.10;;;;;;4952909;28;20034;-85
2022/07/09 10:16:40;;;;;;;0.57;0.50;;;26.20;65.10;;;;;;4954487;28;20065;-88
2022/07/09 10:19:09;;;;;;;1.20;0.60;;;25.90;63.30;;;;;;4951180;28;20581;-83
2022/07/09 10:21:40;;;;;;;0.98;0.50;;;25.60;71.70;;;;;;4937150;28;20079;-82
2022/07/09 10:24:11;;;;;;;1.35;0.70;;;25.40;82.90;;;;;;4949709;28;20038;-84
2022/07/09 10:26:46;;;;;;;1.10;0.80;;;25.40;81.40;;;;;;4954880;28;20042;-79
2022/07/09 10:29:23;;;;;;;1.00;0.70;;;25.30;75.20;;;;;;4950355;28;20083;-83
2022/07/09 10:31:49;;;;;;;1.05;0.70;;;25.70;73.50;;;;;;4948830;28;20023;-83
2022/07/09 10:34:41;;;;;;;1.77;1.20;;;25.70;77.00;;;;;;4929842;28;20571;-81
2022/07/09 10:37:07;;;;;;;0.85;0.85;;;26.00;71.90;;;;;;4952085;28;20057;-81
2022/07/09 10:39:33;;;;;;;0.70;0.70;;;26.00;70.90;;;;;;4955319;28;20038;-81
2022/07/09 10:42:19;;;;;;;1.95;1.10;;;26.00;72.50;;;;;;4954402;28;20269;-80
2022/07/09 10:44:54;;;;;;;1.90;0.95;;;26.10;72.20;;;;;;4955942;28;20121;-81
2022/07/09 10:47:20;;;;;;;2.08;1.05;;;26.10;72.90;;;;;;4954505;28;20058;-80
2022/07/09 10:49:45;;;;;;;0.90;0.90;;;26.40;69.60;;;;;;4935712;28;20043;-81
2022/07/09 10:52:11;;;;;;;1.05;1.05;;;26.80;67.90;;;;;;4937083;28;20035;-81
2022/07/09 10:54:49;;;;;;;1.02;1.00;;;27.50;67.70;;;;;;4937078;28;20399;-80
2022/07/09 10:57:15;;;;;;;1.02;0.73;;;27.60;56.70;;;;;;4934250;28;20027;-80
2022/07/09 10:59:47;;;;;;;2.78;1.05;;;27.70;61.30;;;;;;4936134;28;20047;-81
2022/07/09 11:02:20;;;;;;;2.03;1.00;;;27.70;65.40;;;;;;4940124;28;20063;-81
2022/07/09 11:04:53;;;;;;;3.03;1.00;;;28.50;65.30;;;;;;4921419;28;20031;-80
2022/07/09 11:07:29;;;;;;;2.45;0.93;;;30.30;60.30;;;;;;4931766;29;20046;-81
2022/07/09 11:09:55;;;;;;;0.93;0.82;;;31.60;54.40;;;;;;4932069;28;20441;-81
2022/07/09 11:12:21;;;;;;;1.10;1.00;;;31.80;49.90;;;;;;4938464;29;20050;-80
2022/07/09 11:14:50;;;;;;;1.98;0.70;;;32.20;49.10;;;;;;4939520;28;20200;-80
2022/07/09 11:17:20;;;;;;;1.85;1.10;;;31.60;46.40;;;;;;4937004;29;20031;-82
2022/07/09 11:19:46;;;;;;;1.13;1.07;;;30.40;47.10;;;;;;4936789;28;20067;-80
2022/07/09 11:22:12;;;;;;;0.90;0.90;;;30.30;50.20;;;;;;4934581;29;20590;-81
2022/07/09 11:24:38;;;;;;;1.10;0.95;;;29.50;48.90;;;;;;4913037;29;20039;-82
2022/07/09 11:27:05;;;;;;;1.58;0.90;;;29.90;53.80;;;;;;4935375;28;20027;-81
2022/07/09 11:29:32;;;;;;;1.95;0.80;;;30.80;53.60;;;;;;4917604;29;20035;-81
2022/07/09 11:31:58;;;;;;;0.60;0.60;;;31.90;50.40;;;;;;4936863;28;20019;-81
2022/07/09 11:34:24;;;;;;;0.77;0.68;;;32.40;50.50;;;;;;4923193;29;20042;-81
2022/07/09 11:36:54;;;;;;;1.15;0.80;;;33.30;47.60;;;;;;4933576;28;20051;-81
2022/07/09 11:39:32;;;;;;;1.27;0.90;;;32.90;42.70;;;;;;4932387;28;20027;-81
2022/07/09 11:42:00;;;;;;;2.38;1.10;;;32.60;47.30;;;;;;4931533;28;20035;-81
2022/07/09 11:44:33;;;;;;;3.40;1.23;;;31.40;46.80;;;;;;4936479;29;20023;-81
2022/07/09 11:47:17;;;;;;;2.75;1.20;;;30.50;49.60;;;;;;4918831;29;20031;-82
2022/07/09 11:49:44;;;;;;;1.35;1.08;;;29.40;51.60;;;;;;4949269;28;20462;-80
2022/07/09 11:52:19;;;;;;;1.17;0.80;;;29.00;56.20;;;;;;4955276;28;20034;-80
2022/07/09 11:55:06;;;;;;;1.23;1.13;;;29.50;54.90;;;;;;4948791;28;20494;-81
2022/07/09 11:57:34;;;;;;;3.13;1.10;;;29.90;54.60;;;;;;4954105;28;20114;-81
2022/07/09 12:00:00;;;;;;;1.30;1.00;;;29.90;47.60;;;;;;4934666;28;20141;-82
2022/07/09 12:02:37;;;;;;;2.60;1.00;;;29.90;55.20;;;;;;4953607;28;20043;-81
2022/07/09 12:05:09;;;;;;;0.82;0.80;;;30.00;51.90;;;;;;4959463;28;20601;-81
2022/07/09 12:07:35;;;;;;;1.77;1.42;;;29.60;51.80;;;;;;4946158;28;20038;-81
2022/07/09 12:10:07;;;;;;;1.55;0.98;;;29.70;55.70;;;;;;4956651;28;20199;-81
2022/07/09 12:12:34;;;;;;;4.45;0.77;;;29.80;49.40;;;;;;4957245;28;20385;-81
2022/07/09 12:15:01;;;;;;;2.45;0.80;;;29.80;48.30;;;;;;4947048;28;20235;-81
2022/07/09 12:17:29;;;;;;;1.67;0.95;;;29.30;54.30;;;;;;4947337;28;20046;-82
2022/07/09 12:19:56;;;;;;;1.10;1.00;;;29.30;52.80;;;;;;4947387;28;20126;-81
2022/07/09 12:22:23;;;;;;;2.47;1.07;;;29.40;52.60;;;;;;4598457;28;9999881;-81
2022/07/09 12:24:49;;;;;;;1.45;1.02;;;29.00;53.00;;;;;;4949288;28;20027;-81
2022/07/09 12:27:15;;;;;;;1.42;1.17;;;29.30;55.10;;;;;;4950773;28;20081;-81
2022/07/09 12:29:41;;;;;;;1.65;1.17;;;29.40;52.60;;;;;;4962245;28;20804;-80
2022/07/09 12:32:07;;;;;;;1.50;1.40;;;29.70;56.60;;;;;;4958599;28;20042;-81
2022/07/09 12:34:33;;;;;;;1.65;1.05;;;29.80;51.40;;;;;;4961963;28;20086;-81
2022/07/09 12:36:59;;;;;;;1.55;1.23;;;29.70;48.00;;;;;;4957835;28;21001;-81
2022/07/09 12:39:25;;;;;;;1.40;1.27;;;29.00;47.60;;;;;;4957172;28;20030;-80
2022/07/09 12:41:51;;;;;;;1.40;1.30;;;28.20;53.20;;;;;;4952360;28;20034;-81
2022/07/09 12:44:16;;;;;;;2.53;1.20;;;27.60;59.10;;;;;;4938395;28;20113;-80